sensor_id;sensor_type;location;lat;lon;timestamp;temperature;humidity
81140;SHT31;70624;51.978;5.656;2023-12-07T00:01:39;3.3;71.4
81140;SHT31;70624;51.978;5.656;2023-12-07T00:04:08;3.3;71.4
81140;SHT31;70624;51.978;5.656;2023-12-07T00:06:36;3.3;71.4
81140;SHT31;70624;51.978;5.656;2023-12-07T00:09:04;3.3;71.3
81140;SHT31;70624;51.978;5.656;2023-12-07T00:11:33;3.3;71.4
81140;SHT31;70624;51.978;5.656;2023-12-07T00:14:01;3.3;71.3
81140;SHT31;70624;51.978;5.656;2023-12-07T00:16:30;3.2;71.4
81140;SHT31;70624;51.978;5.656;2023-12-07T00:18:58;3.2;70.9
81140;SHT31;70624;51.978;5.656;2023-12-07T00:21:27;3.2;71.1
81140;SHT31;70624;51.978;5.656;2023-12-07T00:23:55;3.2;71.2
81140;SHT31;70624;51.978;5.656;2023-12-07T00:26:23;3.2;71.0
81140;SHT31;70624;51.978;5.656;2023-12-07T00:28:52;3.2;71.1
81140;SHT31;70624;51.978;5.656;2023-12-07T00:31:20;3.2;71.1
81140;SHT31;70624;51.978;5.656;2023-12-07T00:33:50;3.2;71.3
81140;SHT31;70624;51.978;5.656;2023-12-07T00:36:18;3.1;71.4
81140;SHT31;70624;51.978;5.656;2023-12-07T00:38:47;3.1;71.1
81140;SHT31;70624;51.978;5.656;2023-12-07T00:41:15;3.1;71.3
81140;SHT31;70624;51.978;5.656;2023-12-07T00:43:44;3.1;71.1
81140;SHT31;70624;51.978;5.656;2023-12-07T00:46:12;3.1;71.0
81140;SHT31;70624;51.978;5.656;2023-12-07T00:48:40;3.1;71.0
81140;SHT31;70624;51.978;5.656;2023-12-07T00:51:11;3.1;71.4
81140;SHT31;70624;51.978;5.656;2023-12-07T00:53:43;3.1;71.1
81140;SHT31;70624;51.978;5.656;2023-12-07T00:56:11;3.1;71.4
81140;SHT31;70624;51.978;5.656;2023-12-07T00:58:40;3.1;71.5
81140;SHT31;70624;51.978;5.656;2023-12-07T01:01:08;3.1;71.4
81140;SHT31;70624;51.978;5.656;2023-12-07T01:03:36;3.1;71.4
81140;SHT31;70624;51.978;5.656;2023-12-07T01:06:07;3.0;71.2
81140;SHT31;70624;51.978;5.656;2023-12-07T01:08:36;3.0;71.1
81140;SHT31;70624;51.978;5.656;2023-12-07T01:11:05;3.0;71.2
81140;SHT31;70624;51.978;5.656;2023-12-07T01:13:33;3.0;71.2
81140;SHT31;70624;51.978;5.656;2023-12-07T01:16:04;3.0;71.2
81140;SHT31;70624;51.978;5.656;2023-12-07T01:18:33;3.0;71.3
81140;SHT31;70624;51.978;5.656;2023-12-07T01:21:01;3.0;71.1
81140;SHT31;70624;51.978;5.656;2023-12-07T01:23:29;3.0;71.2
81140;SHT31;70624;51.978;5.656;2023-12-07T01:25:58;3.0;70.9
81140;SHT31;70624;51.978;5.656;2023-12-07T01:28:29;3.0;71.3
81140;SHT31;70624;51.978;5.656;2023-12-07T01:30:59;3.0;71.2
81140;SHT31;70624;51.978;5.656;2023-12-07T01:33:28;3.0;71.3
81140;SHT31;70624;51.978;5.656;2023-12-07T01:35:56;3.0;71.4
81140;SHT31;70624;51.978;5.656;2023-12-07T01:38:24;3.0;71.3
81140;SHT31;70624;51.978;5.656;2023-12-07T01:40:53;3.0;71.4
81140;SHT31;70624;51.978;5.656;2023-12-07T01:43:22;3.0;71.6
81140;SHT31;70624;51.978;5.656;2023-12-07T01:45:52;3.0;71.7
81140;SHT31;70624;51.978;5.656;2023-12-07T01:48:24;3.0;72.0
81140;SHT31;70624;51.978;5.656;2023-12-07T01:50:53;3.0;71.7
81140;SHT31;70624;51.978;5.656;2023-12-07T01:53:23;3.0;71.8
81140;SHT31;70624;51.978;5.656;2023-12-07T01:55:53;3.0;72.2
81140;SHT31;70624;51.978;5.656;2023-12-07T01:58:22;3.0;72.3
81140;SHT31;70624;51.978;5.656;2023-12-07T02:00:51;3.0;72.5
81140;SHT31;70624;51.978;5.656;2023-12-07T02:03:20;3.0;72.2
81140;SHT31;70624;51.978;5.656;2023-12-07T02:05:49;3.1;72.3
81140;SHT31;70624;51.978;5.656;2023-12-07T02:08:17;3.1;72.5
81140;SHT31;70624;51.978;5.656;2023-12-07T02:10:46;3.1;72.3
81140;SHT31;70624;51.978;5.656;2023-12-07T02:13:16;3.1;72.3
81140;SHT31;70624;51.978;5.656;2023-12-07T02:15:45;3.2;72.6
81140;SHT31;70624;51.978;5.656;2023-12-07T02:18:21;3.2;72.6
81140;SHT31;70624;51.978;5.656;2023-12-07T02:21:05;3.2;72.6
81140;SHT31;70624;51.978;5.656;2023-12-07T02:23:29;3.2;72.6
81140;SHT31;70624;51.978;5.656;2023-12-07T02:26:03;3.2;72.4
81140;SHT31;70624;51.978;5.656;2023-12-07T02:28:32;3.3;72.8
81140;SHT31;70624;51.978;5.656;2023-12-07T02:31:00;3.3;72.7
81140;SHT31;70624;51.978;5.656;2023-12-07T02:33:29;3.3;72.5
81140;SHT31;70624;51.978;5.656;2023-12-07T02:35:58;3.3;72.6
81140;SHT31;70624;51.978;5.656;2023-12-07T02:38:28;3.3;72.7
81140;SHT31;70624;51.978;5.656;2023-12-07T02:41:00;3.3;73.0
81140;SHT31;70624;51.978;5.656;2023-12-07T02:43:30;3.4;73.4
81140;SHT31;70624;51.978;5.656;2023-12-07T02:45:58;3.4;73.4
81140;SHT31;70624;51.978;5.656;2023-12-07T02:48:27;3.4;73.5
81140;SHT31;70624;51.978;5.656;2023-12-07T02:50:56;3.5;73.7
81140;SHT31;70624;51.978;5.656;2023-12-07T02:53:24;3.5;73.9
81140;SHT31;70624;51.978;5.656;2023-12-07T02:55:53;3.5;73.7
81140;SHT31;70624;51.978;5.656;2023-12-07T02:58:21;3.6;73.3
81140;SHT31;70624;51.978;5.656;2023-12-07T03:00:50;3.6;73.3
81140;SHT31;70624;51.978;5.656;2023-12-07T03:03:18;3.7;73.1
81140;SHT31;70624;51.978;5.656;2023-12-07T03:05:47;3.7;73.3
81140;SHT31;70624;51.978;5.656;2023-12-07T03:08:15;3.7;73.3
81140;SHT31;70624;51.978;5.656;2023-12-07T03:10:44;3.7;73.2
81140;SHT31;70624;51.978;5.656;2023-12-07T03:13:12;3.8;72.9
81140;SHT31;70624;51.978;5.656;2023-12-07T03:15:40;3.8;72.7
81140;SHT31;70624;51.978;5.656;2023-12-07T03:18:09;3.8;72.7
81140;SHT31;70624;51.978;5.656;2023-12-07T03:20:39;3.8;72.5
81140;SHT31;70624;51.978;5.656;2023-12-07T03:23:08;3.9;72.4
81140;SHT31;70624;51.978;5.656;2023-12-07T03:25:36;3.9;72.2
81140;SHT31;70624;51.978;5.656;2023-12-07T03:28:05;3.9;72.3
81140;SHT31;70624;51.978;5.656;2023-12-07T03:30:33;3.9;72.3
81140;SHT31;70624;51.978;5.656;2023-12-07T03:33:01;3.9;72.1
81140;SHT31;70624;51.978;5.656;2023-12-07T03:35:30;3.9;72.0
81140;SHT31;70624;51.978;5.656;2023-12-07T03:37:58;3.9;71.8
81140;SHT31;70624;51.978;5.656;2023-12-07T03:40:27;3.9;71.7
81140;SHT31;70624;51.978;5.656;2023-12-07T03:42:55;3.9;71.6
81140;SHT31;70624;51.978;5.656;2023-12-07T03:45:24;3.9;71.7
81140;SHT31;70624;51.978;5.656;2023-12-07T03:47:55;3.9;71.4
81140;SHT31;70624;51.978;5.656;2023-12-07T03:50:23;3.9;71.4
81140;SHT31;70624;51.978;5.656;2023-12-07T03:52:51;3.8;71.1
81140;SHT31;70624;51.978;5.656;2023-12-07T03:55:20;3.8;71.3
81140;SHT31;70624;51.978;5.656;2023-12-07T03:57:48;3.8;71.1
81140;SHT31;70624;51.978;5.656;2023-12-07T04:00:17;3.8;71.2
81140;SHT31;70624;51.978;5.656;2023-12-07T04:02:47;3.8;70.9
81140;SHT31;70624;51.978;5.656;2023-12-07T04:05:15;3.8;71.0
81140;SHT31;70624;51.978;5.656;2023-12-07T04:07:44;3.7;71.2
81140;SHT31;70624;51.978;5.656;2023-12-07T04:10:12;3.7;71.3
81140;SHT31;70624;51.978;5.656;2023-12-07T04:12:41;3.7;71.1
81140;SHT31;70624;51.978;5.656;2023-12-07T04:15:10;3.7;71.2
81140;SHT31;70624;51.978;5.656;2023-12-07T04:17:38;3.7;71.3
81140;SHT31;70624;51.978;5.656;2023-12-07T04:20:07;3.7;71.2
81140;SHT31;70624;51.978;5.656;2023-12-07T04:22:36;3.6;71.3
81140;SHT31;70624;51.978;5.656;2023-12-07T04:25:05;3.6;71.3
81140;SHT31;70624;51.978;5.656;2023-12-07T04:27:34;3.6;71.5
81140;SHT31;70624;51.978;5.656;2023-12-07T04:30:03;3.6;71.5
81140;SHT31;70624;51.978;5.656;2023-12-07T04:32:32;3.6;71.8
81140;SHT31;70624;51.978;5.656;2023-12-07T04:35:00;3.5;72.0
81140;SHT31;70624;51.978;5.656;2023-12-07T04:37:29;3.5;72.3
81140;SHT31;70624;51.978;5.656;2023-12-07T04:39:59;3.5;72.6
81140;SHT31;70624;51.978;5.656;2023-12-07T04:42:29;3.5;72.6
81140;SHT31;70624;51.978;5.656;2023-12-07T04:44:58;3.6;73.2
81140;SHT31;70624;51.978;5.656;2023-12-07T04:47:26;3.6;73.4
81140;SHT31;70624;51.978;5.656;2023-12-07T04:49:56;3.6;73.3
81140;SHT31;70624;51.978;5.656;2023-12-07T04:52:24;3.6;73.5
81140;SHT31;70624;51.978;5.656;2023-12-07T04:54:52;3.7;73.8
81140;SHT31;70624;51.978;5.656;2023-12-07T04:57:21;3.7;74.2
81140;SHT31;70624;51.978;5.656;2023-12-07T04:59:49;3.8;74.3
81140;SHT31;70624;51.978;5.656;2023-12-07T05:02:18;3.8;74.2
81140;SHT31;70624;51.978;5.656;2023-12-07T05:04:46;3.8;74.5
81140;SHT31;70624;51.978;5.656;2023-12-07T05:07:15;3.9;74.5
81140;SHT31;70624;51.978;5.656;2023-12-07T05:09:43;3.9;74.8
81140;SHT31;70624;51.978;5.656;2023-12-07T05:12:14;3.9;74.9
81140;SHT31;70624;51.978;5.656;2023-12-07T05:14:42;4.0;74.9
81140;SHT31;70624;51.978;5.656;2023-12-07T05:17:10;4.0;74.7
81140;SHT31;70624;51.978;5.656;2023-12-07T05:19:40;4.0;74.7
81140;SHT31;70624;51.978;5.656;2023-12-07T05:22:09;4.0;74.8
81140;SHT31;70624;51.978;5.656;2023-12-07T05:24:39;4.1;74.6
81140;SHT31;70624;51.978;5.656;2023-12-07T05:27:08;4.1;74.5
81140;SHT31;70624;51.978;5.656;2023-12-07T05:29:36;4.1;74.3
81140;SHT31;70624;51.978;5.656;2023-12-07T05:32:05;4.1;74.4
81140;SHT31;70624;51.978;5.656;2023-12-07T05:34:34;4.1;74.1
81140;SHT31;70624;51.978;5.656;2023-12-07T05:37:02;4.2;73.7
81140;SHT31;70624;51.978;5.656;2023-12-07T05:39:31;4.2;73.5
81140;SHT31;70624;51.978;5.656;2023-12-07T05:42:00;4.2;73.3
81140;SHT31;70624;51.978;5.656;2023-12-07T05:44:30;4.2;73.2
81140;SHT31;70624;51.978;5.656;2023-12-07T05:46:59;4.2;73.0
81140;SHT31;70624;51.978;5.656;2023-12-07T05:49:27;4.2;73.1
81140;SHT31;70624;51.978;5.656;2023-12-07T05:51:56;4.2;72.9
81140;SHT31;70624;51.978;5.656;2023-12-07T05:54:26;4.2;72.8
81140;SHT31;70624;51.978;5.656;2023-12-07T05:56:54;4.2;72.5
81140;SHT31;70624;51.978;5.656;2023-12-07T05:59:23;4.2;72.3
81140;SHT31;70624;51.978;5.656;2023-12-07T06:01:53;4.1;72.3
81140;SHT31;70624;51.978;5.656;2023-12-07T06:04:21;4.1;72.3
81140;SHT31;70624;51.978;5.656;2023-12-07T06:06:49;4.1;72.3
81140;SHT31;70624;51.978;5.656;2023-12-07T06:09:18;4.1;72.2
81140;SHT31;70624;51.978;5.656;2023-12-07T06:11:46;4.1;72.1
81140;SHT31;70624;51.978;5.656;2023-12-07T06:14:15;4.1;72.3
81140;SHT31;70624;51.978;5.656;2023-12-07T06:16:43;4.1;73.0
81140;SHT31;70624;51.978;5.656;2023-12-07T06:19:12;4.1;72.8
81140;SHT31;70624;51.978;5.656;2023-12-07T06:21:40;4.1;73.1
81140;SHT31;70624;51.978;5.656;2023-12-07T06:24:10;4.0;73.2
81140;SHT31;70624;51.978;5.656;2023-12-07T06:26:40;4.0;72.4
81140;SHT31;70624;51.978;5.656;2023-12-07T06:29:09;4.0;72.2
81140;SHT31;70624;51.978;5.656;2023-12-07T06:31:44;4.0;71.8
81140;SHT31;70624;51.978;5.656;2023-12-07T06:34:13;4.0;71.8
81140;SHT31;70624;51.978;5.656;2023-12-07T06:36:41;3.9;71.6
81140;SHT31;70624;51.978;5.656;2023-12-07T06:39:10;3.9;72.0
81140;SHT31;70624;51.978;5.656;2023-12-07T06:41:40;3.9;72.0
81140;SHT31;70624;51.978;5.656;2023-12-07T06:44:08;3.8;72.2
81140;SHT31;70624;51.978;5.656;2023-12-07T06:46:37;3.8;72.3
81140;SHT31;70624;51.978;5.656;2023-12-07T06:49:05;3.8;72.7
81140;SHT31;70624;51.978;5.656;2023-12-07T06:51:34;3.8;72.6
81140;SHT31;70624;51.978;5.656;2023-12-07T06:54:02;3.7;72.7
81140;SHT31;70624;51.978;5.656;2023-12-07T06:56:31;3.7;72.6
81140;SHT31;70624;51.978;5.656;2023-12-07T06:58:59;3.7;72.6
81140;SHT31;70624;51.978;5.656;2023-12-07T07:01:28;3.7;72.4
81140;SHT31;70624;51.978;5.656;2023-12-07T07:03:56;3.7;72.4
81140;SHT31;70624;51.978;5.656;2023-12-07T07:06:26;3.7;72.9
81140;SHT31;70624;51.978;5.656;2023-12-07T07:08:55;3.7;73.1
81140;SHT31;70624;51.978;5.656;2023-12-07T07:11:23;3.7;73.2
81140;SHT31;70624;51.978;5.656;2023-12-07T07:13:52;3.8;73.3
81140;SHT31;70624;51.978;5.656;2023-12-07T07:16:20;3.8;72.7
81140;SHT31;70624;51.978;5.656;2023-12-07T07:18:49;3.8;72.5
81140;SHT31;70624;51.978;5.656;2023-12-07T07:21:17;3.8;72.8
81140;SHT31;70624;51.978;5.656;2023-12-07T07:23:46;3.8;72.7
81140;SHT31;70624;51.978;5.656;2023-12-07T07:26:16;3.8;72.2
81140;SHT31;70624;51.978;5.656;2023-12-07T07:28:44;3.8;72.4
81140;SHT31;70624;51.978;5.656;2023-12-07T07:31:12;3.8;72.5
81140;SHT31;70624;51.978;5.656;2023-12-07T07:33:41;3.8;72.2
81140;SHT31;70624;51.978;5.656;2023-12-07T07:36:09;3.9;72.1
81140;SHT31;70624;51.978;5.656;2023-12-07T07:38:38;3.9;71.8
81140;SHT31;70624;51.978;5.656;2023-12-07T07:41:07;3.9;71.9
81140;SHT31;70624;51.978;5.656;2023-12-07T07:43:37;3.9;72.2
81140;SHT31;70624;51.978;5.656;2023-12-07T07:46:07;3.9;71.9
81140;SHT31;70624;51.978;5.656;2023-12-07T07:48:36;3.9;71.8
81140;SHT31;70624;51.978;5.656;2023-12-07T07:51:06;3.9;71.9
81140;SHT31;70624;51.978;5.656;2023-12-07T07:53:34;3.9;72.3
81140;SHT31;70624;51.978;5.656;2023-12-07T07:56:03;3.9;72.1
81140;SHT31;70624;51.978;5.656;2023-12-07T07:58:31;3.9;72.1
81140;SHT31;70624;51.978;5.656;2023-12-07T08:01:00;3.9;72.1
81140;SHT31;70624;51.978;5.656;2023-12-07T08:03:28;3.9;72.3
81140;SHT31;70624;51.978;5.656;2023-12-07T08:05:57;3.8;72.5
81140;SHT31;70624;51.978;5.656;2023-12-07T08:08:25;3.8;71.9
81140;SHT31;70624;51.978;5.656;2023-12-07T08:10:54;3.8;71.8
81140;SHT31;70624;51.978;5.656;2023-12-07T08:13:24;3.8;71.7
81140;SHT31;70624;51.978;5.656;2023-12-07T08:15:54;3.8;72.3
81140;SHT31;70624;51.978;5.656;2023-12-07T08:18:22;3.8;72.1
81140;SHT31;70624;51.978;5.656;2023-12-07T08:20:51;3.8;72.5
81140;SHT31;70624;51.978;5.656;2023-12-07T08:23:19;3.8;72.3
81140;SHT31;70624;51.978;5.656;2023-12-07T08:25:48;3.8;72.4
81140;SHT31;70624;51.978;5.656;2023-12-07T08:28:16;3.8;72.4
81140;SHT31;70624;51.978;5.656;2023-12-07T08:30:45;3.8;72.4
81140;SHT31;70624;51.978;5.656;2023-12-07T08:33:13;3.8;72.3
81140;SHT31;70624;51.978;5.656;2023-12-07T08:35:41;3.8;72.5
81140;SHT31;70624;51.978;5.656;2023-12-07T08:38:10;3.8;71.8
81140;SHT31;70624;51.978;5.656;2023-12-07T08:40:38;3.8;72.2
81140;SHT31;70624;51.978;5.656;2023-12-07T08:43:06;3.8;72.2
81140;SHT31;70624;51.978;5.656;2023-12-07T08:45:35;3.8;72.2
81140;SHT31;70624;51.978;5.656;2023-12-07T08:48:04;3.8;72.4
81140;SHT31;70624;51.978;5.656;2023-12-07T08:50:33;3.9;72.4
81140;SHT31;70624;51.978;5.656;2023-12-07T08:53:01;3.9;72.2
81140;SHT31;70624;51.978;5.656;2023-12-07T08:55:31;3.9;71.8
81140;SHT31;70624;51.978;5.656;2023-12-07T08:57:59;3.9;71.8
81140;SHT31;70624;51.978;5.656;2023-12-07T09:00:30;3.9;71.8
81140;SHT31;70624;51.978;5.656;2023-12-07T09:02:59;3.9;71.9
81140;SHT31;70624;51.978;5.656;2023-12-07T09:05:28;3.9;72.0
81140;SHT31;70624;51.978;5.656;2023-12-07T09:07:57;4.0;72.1
81140;SHT31;70624;51.978;5.656;2023-12-07T09:10:25;4.0;72.2
81140;SHT31;70624;51.978;5.656;2023-12-07T09:12:54;4.0;72.4
81140;SHT31;70624;51.978;5.656;2023-12-07T09:15:23;4.0;72.5
81140;SHT31;70624;51.978;5.656;2023-12-07T09:17:51;4.0;72.2
81140;SHT31;70624;51.978;5.656;2023-12-07T09:20:20;4.0;72.2
81140;SHT31;70624;51.978;5.656;2023-12-07T09:22:48;4.0;71.6
81140;SHT31;70624;51.978;5.656;2023-12-07T09:25:18;4.0;72.1
81140;SHT31;70624;51.978;5.656;2023-12-07T09:27:47;4.0;71.8
81140;SHT31;70624;51.978;5.656;2023-12-07T09:30:17;4.0;71.7
81140;SHT31;70624;51.978;5.656;2023-12-07T09:32:46;4.0;71.8
81140;SHT31;70624;51.978;5.656;2023-12-07T09:35:14;4.0;71.9
81140;SHT31;70624;51.978;5.656;2023-12-07T09:37:45;4.0;72.1
81140;SHT31;70624;51.978;5.656;2023-12-07T09:40:18;4.0;72.0
81140;SHT31;70624;51.978;5.656;2023-12-07T09:42:48;4.1;72.3
81140;SHT31;70624;51.978;5.656;2023-12-07T09:45:18;4.1;72.5
81140;SHT31;70624;51.978;5.656;2023-12-07T09:47:49;4.1;72.3
81140;SHT31;70624;51.978;5.656;2023-12-07T09:50:20;4.1;72.4
81140;SHT31;70624;51.978;5.656;2023-12-07T09:52:50;4.1;72.4
81140;SHT31;70624;51.978;5.656;2023-12-07T09:55:19;4.1;72.6
81140;SHT31;70624;51.978;5.656;2023-12-07T09:57:49;4.1;72.7
81140;SHT31;70624;51.978;5.656;2023-12-07T10:00:20;4.1;72.8
81140;SHT31;70624;51.978;5.656;2023-12-07T10:02:49;4.2;72.8
81140;SHT31;70624;51.978;5.656;2023-12-07T10:05:18;4.2;72.5
81140;SHT31;70624;51.978;5.656;2023-12-07T10:07:48;4.2;72.4
81140;SHT31;70624;51.978;5.656;2023-12-07T10:10:18;4.2;72.5
81140;SHT31;70624;51.978;5.656;2023-12-07T10:12:50;4.2;72.1
81140;SHT31;70624;51.978;5.656;2023-12-07T10:15:21;4.2;72.6
81140;SHT31;70624;51.978;5.656;2023-12-07T10:17:53;4.2;72.6
81140;SHT31;70624;51.978;5.656;2023-12-07T10:20:24;4.2;72.5
81140;SHT31;70624;51.978;5.656;2023-12-07T10:23:03;4.2;72.7
81140;SHT31;70624;51.978;5.656;2023-12-07T10:25:35;4.2;72.8
81140;SHT31;70624;51.978;5.656;2023-12-07T10:28:04;4.2;73.0
81140;SHT31;70624;51.978;5.656;2023-12-07T10:30:33;4.2;73.3
81140;SHT31;70624;51.978;5.656;2023-12-07T10:33:04;4.2;73.7
81140;SHT31;70624;51.978;5.656;2023-12-07T10:35:38;4.2;73.7
81140;SHT31;70624;51.978;5.656;2023-12-07T10:38:06;4.3;73.9
81140;SHT31;70624;51.978;5.656;2023-12-07T10:40:35;4.3;74.0
81140;SHT31;70624;51.978;5.656;2023-12-07T10:43:05;4.3;73.7
81140;SHT31;70624;51.978;5.656;2023-12-07T10:45:34;4.4;73.7
81140;SHT31;70624;51.978;5.656;2023-12-07T10:48:06;4.4;73.8
81140;SHT31;70624;51.978;5.656;2023-12-07T10:50:37;4.4;73.7
81140;SHT31;70624;51.978;5.656;2023-12-07T10:53:10;4.4;73.7
81140;SHT31;70624;51.978;5.656;2023-12-07T10:55:45;4.5;74.0
81140;SHT31;70624;51.978;5.656;2023-12-07T10:58:16;4.5;73.8
81140;SHT31;70624;51.978;5.656;2023-12-07T11:00:45;4.5;73.9
81140;SHT31;70624;51.978;5.656;2023-12-07T11:03:16;4.5;74.1
81140;SHT31;70624;51.978;5.656;2023-12-07T11:05:46;4.6;74.1
81140;SHT31;70624;51.978;5.656;2023-12-07T11:08:21;4.6;74.1
81140;SHT31;70624;51.978;5.656;2023-12-07T11:11:01;4.7;74.1
81140;SHT31;70624;51.978;5.656;2023-12-07T11:13:35;4.7;74.4
81140;SHT31;70624;51.978;5.656;2023-12-07T11:16:05;4.7;74.2
81140;SHT31;70624;51.978;5.656;2023-12-07T11:18:34;4.8;74.2
81140;SHT31;70624;51.978;5.656;2023-12-07T11:21:04;4.8;74.2
81140;SHT31;70624;51.978;5.656;2023-12-07T11:23:33;4.9;75.0
81140;SHT31;70624;51.978;5.656;2023-12-07T11:26:03;4.9;74.5
81140;SHT31;70624;51.978;5.656;2023-12-07T11:28:39;5.0;74.2
81140;SHT31;70624;51.978;5.656;2023-12-07T11:31:09;5.1;73.7
81140;SHT31;70624;51.978;5.656;2023-12-07T11:33:41;5.1;74.2
81140;SHT31;70624;51.978;5.656;2023-12-07T11:36:11;5.2;73.5
81140;SHT31;70624;51.978;5.656;2023-12-07T11:41:43;5.3;73.1
81140;SHT31;70624;51.978;5.656;2023-12-07T11:44:11;5.3;72.9
81140;SHT31;70624;51.978;5.656;2023-12-07T11:46:40;5.4;72.7
81140;SHT31;70624;51.978;5.656;2023-12-07T11:49:08;5.4;72.7
81140;SHT31;70624;51.978;5.656;2023-12-07T11:51:37;5.4;72.7
81140;SHT31;70624;51.978;5.656;2023-12-07T11:54:05;5.4;72.6
81140;SHT31;70624;51.978;5.656;2023-12-07T11:56:37;5.5;72.6
81140;SHT31;70624;51.978;5.656;2023-12-07T11:59:05;5.5;72.3
81140;SHT31;70624;51.978;5.656;2023-12-07T12:01:34;5.5;72.6
81140;SHT31;70624;51.978;5.656;2023-12-07T12:04:02;5.6;72.8
81140;SHT31;70624;51.978;5.656;2023-12-07T12:06:35;5.6;72.3
81140;SHT31;70624;51.978;5.656;2023-12-07T12:09:03;5.6;72.1
81140;SHT31;70624;51.978;5.656;2023-12-07T12:11:32;5.6;72.1
81140;SHT31;70624;51.978;5.656;2023-12-07T12:14:00;5.6;72.1
81140;SHT31;70624;51.978;5.656;2023-12-07T12:16:30;5.7;72.0
81140;SHT31;70624;51.978;5.656;2023-12-07T12:18:59;5.7;72.2
81140;SHT31;70624;51.978;5.656;2023-12-07T12:21:28;5.7;72.4
81140;SHT31;70624;51.978;5.656;2023-12-07T12:23:57;5.7;72.3
81140;SHT31;70624;51.978;5.656;2023-12-07T12:26:27;5.7;72.1
81140;SHT31;70624;51.978;5.656;2023-12-07T12:28:55;5.8;71.9
81140;SHT31;70624;51.978;5.656;2023-12-07T12:31:26;5.8;72.0
81140;SHT31;70624;51.978;5.656;2023-12-07T12:33:55;5.8;72.1
81140;SHT31;70624;51.978;5.656;2023-12-07T12:36:26;5.8;72.4
81140;SHT31;70624;51.978;5.656;2023-12-07T12:38:56;5.8;72.4
81140;SHT31;70624;51.978;5.656;2023-12-07T12:41:24;5.8;72.2
81140;SHT31;70624;51.978;5.656;2023-12-07T12:43:54;5.9;72.1
81140;SHT31;70624;51.978;5.656;2023-12-07T12:46:23;5.9;71.9
81140;SHT31;70624;51.978;5.656;2023-12-07T12:48:56;5.9;72.3
81140;SHT31;70624;51.978;5.656;2023-12-07T12:51:27;5.9;72.3
81140;SHT31;70624;51.978;5.656;2023-12-07T12:53:59;5.9;72.2
81140;SHT31;70624;51.978;5.656;2023-12-07T12:56:28;5.9;72.7
81140;SHT31;70624;51.978;5.656;2023-12-07T12:58:57;5.9;74.6
81140;SHT31;70624;51.978;5.656;2023-12-07T13:01:26;6.0;73.2
81140;SHT31;70624;51.978;5.656;2023-12-07T13:03:55;6.0;72.4
81140;SHT31;70624;51.978;5.656;2023-12-07T13:06:24;6.0;71.8
81140;SHT31;70624;51.978;5.656;2023-12-07T13:08:52;6.0;71.9
81140;SHT31;70624;51.978;5.656;2023-12-07T13:11:22;6.0;71.8
81140;SHT31;70624;51.978;5.656;2023-12-07T13:13:51;6.0;72.4
81140;SHT31;70624;51.978;5.656;2023-12-07T13:16:21;6.0;72.2
81140;SHT31;70624;51.978;5.656;2023-12-07T13:18:49;6.0;71.8
81140;SHT31;70624;51.978;5.656;2023-12-07T13:21:19;6.0;71.7
81140;SHT31;70624;51.978;5.656;2023-12-07T13:23:48;5.9;72.0
81140;SHT31;70624;51.978;5.656;2023-12-07T13:26:18;5.9;72.1
81140;SHT31;70624;51.978;5.656;2023-12-07T13:28:47;5.9;72.1
81140;SHT31;70624;51.978;5.656;2023-12-07T13:31:15;5.8;72.0
81140;SHT31;70624;51.978;5.656;2023-12-07T13:33:44;5.8;72.0
81140;SHT31;70624;51.978;5.656;2023-12-07T13:36:12;5.8;72.0
81140;SHT31;70624;51.978;5.656;2023-12-07T13:38:44;5.7;72.3
81140;SHT31;70624;51.978;5.656;2023-12-07T13:41:13;5.7;72.7
81140;SHT31;70624;51.978;5.656;2023-12-07T13:43:42;5.7;72.6
81140;SHT31;70624;51.978;5.656;2023-12-07T13:46:11;5.7;72.4
81140;SHT31;70624;51.978;5.656;2023-12-07T13:48:39;5.7;71.8
81140;SHT31;70624;51.978;5.656;2023-12-07T13:51:08;5.6;71.7
81140;SHT31;70624;51.978;5.656;2023-12-07T13:53:37;5.6;72.2
81140;SHT31;70624;51.978;5.656;2023-12-07T13:56:06;5.6;71.7
81140;SHT31;70624;51.978;5.656;2023-12-07T13:58:36;5.5;71.8
81140;SHT31;70624;51.978;5.656;2023-12-07T14:01:05;5.5;72.0
81140;SHT31;70624;51.978;5.656;2023-12-07T14:03:34;5.5;71.8
81140;SHT31;70624;51.978;5.656;2023-12-07T14:06:03;5.5;71.9
81140;SHT31;70624;51.978;5.656;2023-12-07T14:08:32;5.4;71.7
81140;SHT31;70624;51.978;5.656;2023-12-07T14:11:00;5.4;71.8
81140;SHT31;70624;51.978;5.656;2023-12-07T14:13:29;5.3;71.8
81140;SHT31;70624;51.978;5.656;2023-12-07T14:15:57;5.3;72.2
81140;SHT31;70624;51.978;5.656;2023-12-07T14:18:25;5.3;72.3
81140;SHT31;70624;51.978;5.656;2023-12-07T14:20:55;5.2;72.8
81140;SHT31;70624;51.978;5.656;2023-12-07T14:23:23;5.2;73.1
81140;SHT31;70624;51.978;5.656;2023-12-07T14:25:52;5.2;73.3
81140;SHT31;70624;51.978;5.656;2023-12-07T14:28:25;5.2;73.0
81140;SHT31;70624;51.978;5.656;2023-12-07T14:30:54;5.2;72.9
81140;SHT31;70624;51.978;5.656;2023-12-07T14:33:23;5.1;72.8
81140;SHT31;70624;51.978;5.656;2023-12-07T14:35:52;5.1;72.8
81140;SHT31;70624;51.978;5.656;2023-12-07T14:38:20;5.1;72.7
81140;SHT31;70624;51.978;5.656;2023-12-07T14:40:49;5.1;73.1
81140;SHT31;70624;51.978;5.656;2023-12-07T14:43:18;5.0;73.6
81140;SHT31;70624;51.978;5.656;2023-12-07T14:45:46;5.0;73.4
81140;SHT31;70624;51.978;5.656;2023-12-07T14:48:15;5.0;73.3
81140;SHT31;70624;51.978;5.656;2023-12-07T14:50:45;5.0;73.3
81140;SHT31;70624;51.978;5.656;2023-12-07T14:53:13;4.9;73.4
81140;SHT31;70624;51.978;5.656;2023-12-07T14:55:42;4.9;73.6
81140;SHT31;70624;51.978;5.656;2023-12-07T14:58:11;4.9;73.7
81140;SHT31;70624;51.978;5.656;2023-12-07T15:00:41;4.9;73.9
81140;SHT31;70624;51.978;5.656;2023-12-07T15:03:10;4.9;73.9
81140;SHT31;70624;51.978;5.656;2023-12-07T15:05:38;4.9;74.1
81140;SHT31;70624;51.978;5.656;2023-12-07T15:08:09;4.9;74.3
81140;SHT31;70624;51.978;5.656;2023-12-07T15:10:38;4.9;74.4
81140;SHT31;70624;51.978;5.656;2023-12-07T15:13:07;4.9;74.7
81140;SHT31;70624;51.978;5.656;2023-12-07T15:15:35;4.9;74.6
81140;SHT31;70624;51.978;5.656;2023-12-07T15:18:04;4.9;76.3
81140;SHT31;70624;51.978;5.656;2023-12-07T15:20:34;4.9;75.4
81140;SHT31;70624;51.978;5.656;2023-12-07T15:23:03;5.0;74.9
81140;SHT31;70624;51.978;5.656;2023-12-07T15:25:31;5.0;74.8
81140;SHT31;70624;51.978;5.656;2023-12-07T15:28:00;5.0;74.6
81140;SHT31;70624;51.978;5.656;2023-12-07T15:30:28;5.1;74.7
81140;SHT31;70624;51.978;5.656;2023-12-07T15:33:00;5.1;74.2
81140;SHT31;70624;51.978;5.656;2023-12-07T15:35:30;5.1;74.3
81140;SHT31;70624;51.978;5.656;2023-12-07T15:37:58;5.1;74.2
81140;SHT31;70624;51.978;5.656;2023-12-07T15:40:27;5.1;74.3
81140;SHT31;70624;51.978;5.656;2023-12-07T15:42:55;5.1;74.3
81140;SHT31;70624;51.978;5.656;2023-12-07T15:45:24;5.1;74.3
81140;SHT31;70624;51.978;5.656;2023-12-07T15:47:52;5.0;74.4
81140;SHT31;70624;51.978;5.656;2023-12-07T15:50:20;5.0;74.4
81140;SHT31;70624;51.978;5.656;2023-12-07T15:52:49;5.0;74.5
81140;SHT31;70624;51.978;5.656;2023-12-07T15:55:18;5.0;74.6
81140;SHT31;70624;51.978;5.656;2023-12-07T15:57:46;5.0;74.7
81140;SHT31;70624;51.978;5.656;2023-12-07T16:00:15;5.0;74.8
81140;SHT31;70624;51.978;5.656;2023-12-07T16:02:44;4.9;74.8
81140;SHT31;70624;51.978;5.656;2023-12-07T16:05:12;4.9;76.2
81140;SHT31;70624;51.978;5.656;2023-12-07T16:07:40;4.9;75.5
81140;SHT31;70624;51.978;5.656;2023-12-07T16:10:09;4.9;75.3
81140;SHT31;70624;51.978;5.656;2023-12-07T16:12:38;4.9;75.3
81140;SHT31;70624;51.978;5.656;2023-12-07T16:15:07;4.9;74.8
81140;SHT31;70624;51.978;5.656;2023-12-07T16:17:35;4.9;74.5
81140;SHT31;70624;51.978;5.656;2023-12-07T16:20:04;4.9;74.6
81140;SHT31;70624;51.978;5.656;2023-12-07T16:22:37;4.9;74.5
81140;SHT31;70624;51.978;5.656;2023-12-07T16:25:06;4.9;74.5
81140;SHT31;70624;51.978;5.656;2023-12-07T16:27:34;4.8;74.5
81140;SHT31;70624;51.978;5.656;2023-12-07T16:30:03;4.8;74.5
81140;SHT31;70624;51.978;5.656;2023-12-07T16:32:33;4.8;74.5